sensor_id;sensor_type;location;lat;lon;timestamp;temperature;humidity
66594;DHT22;53450;42.584;23.366;2022-09-09T00:00:24;14.88;82.18
66594;DHT22;53450;42.584;23.366;2022-09-09T00:05:45;14.88;82.24
66594;DHT22;53450;42.584;23.366;2022-09-09T00:08:21;14.89;82.34
66594;DHT22;53450;42.584;23.366;2022-09-09T00:10:58;14.84;82.62
66594;DHT22;53450;42.584;23.366;2022-09-09T00:13:53;14.85;82.87
66594;DHT22;53450;42.584;23.366;2022-09-09T00:16:28;14.67;82.95
66594;DHT22;53450;42.584;23.366;2022-09-09T00:24:44;14.84;82.97
66594;DHT22;53450;42.584;23.366;2022-09-09T00:27:22;14.91;82.94
66594;DHT22;53450;42.584;23.366;2022-09-09T00:30:19;14.94;82.50
66594;DHT22;53450;42.584;23.366;2022-09-09T00:33:02;14.78;82.74
66594;DHT22;53450;42.584;23.366;2022-09-09T00:35:38;14.73;83.02
66594;DHT22;53450;42.584;23.366;2022-09-09T00:38:31;14.83;82.66
66594;DHT22;53450;42.584;23.366;2022-09-09T00:43:32;14.77;82.18
66594;DHT22;53450;42.584;23.366;2022-09-09T00:59:47;14.59;83.32
66594;DHT22;53450;42.584;23.366;2022-09-09T01:02:24;14.60;83.30
66594;DHT22;53450;42.584;23.366;2022-09-09T01:05:51;14.60;83.09
66594;DHT22;53450;42.584;23.366;2022-09-09T01:11:00;14.56;83.24
66594;DHT22;53450;42.584;23.366;2022-09-09T01:13:31;14.60;83.25
66594;DHT22;53450;42.584;23.366;2022-09-09T01:16:08;14.61;83.55
66594;DHT22;53450;42.584;23.366;2022-09-09T01:18:42;14.44;83.29
66594;DHT22;53450;42.584;23.366;2022-09-09T01:26:54;14.61;82.66
66594;DHT22;53450;42.584;23.366;2022-09-09T01:29:25;14.56;82.48
66594;DHT22;53450;42.584;23.366;2022-09-09T01:31:54;14.48;82.72
66594;DHT22;53450;42.584;23.366;2022-09-09T01:34:23;14.57;82.57
66594;DHT22;53450;42.584;23.366;2022-09-09T01:39:46;14.40;82.73
66594;DHT22;53450;42.584;23.366;2022-09-09T01:42:16;14.43;82.85
66594;DHT22;53450;42.584;23.366;2022-09-09T01:44:42;14.46;83.18
66594;DHT22;53450;42.584;23.366;2022-09-09T01:47:34;14.43;83.34
66594;DHT22;53450;42.584;23.366;2022-09-09T01:50:18;14.37;83.44
66594;DHT22;53450;42.584;23.366;2022-09-09T01:52:46;14.34;83.51
66594;DHT22;53450;42.584;23.366;2022-09-09T01:55:18;14.41;83.37
66594;DHT22;53450;42.584;23.366;2022-09-09T02:00:29;14.43;83.35
66594;DHT22;53450;42.584;23.366;2022-09-09T02:03:34;14.43;83.30
66594;DHT22;53450;42.584;23.366;2022-09-09T02:06:28;14.40;83.22
66594;DHT22;53450;42.584;23.366;2022-09-09T02:09:05;14.40;83.27
66594;DHT22;53450;42.584;23.366;2022-09-09T02:11:33;14.40;83.40
66594;DHT22;53450;42.584;23.366;2022-09-09T02:14:23;14.18;83.70
66594;DHT22;53450;42.584;23.366;2022-09-09T02:16:54;14.26;83.85
66594;DHT22;53450;42.584;23.366;2022-09-09T02:19:44;14.25;83.64
66594;DHT22;53450;42.584;23.366;2022-09-09T02:22:24;14.37;83.09
66594;DHT22;53450;42.584;23.366;2022-09-09T02:24:53;14.26;83.10
66594;DHT22;53450;42.584;23.366;2022-09-09T02:27:48;14.30;83.01
66594;DHT22;53450;42.584;23.366;2022-09-09T02:30:15;14.25;83.13
66594;DHT22;53450;42.584;23.366;2022-09-09T02:32:48;14.22;83.44
66594;DHT22;53450;42.584;23.366;2022-09-09T02:35:21;14.18;83.59
66594;DHT22;53450;42.584;23.366;2022-09-09T02:37:50;14.15;83.51
66594;DHT22;53450;42.584;23.366;2022-09-09T02:40:17;14.15;83.59
66594;DHT22;53450;42.584;23.366;2022-09-09T02:42:48;14.19;83.49
66594;DHT22;53450;42.584;23.366;2022-09-09T02:45:54;14.19;83.68
66594;DHT22;53450;42.584;23.366;2022-09-09T02:54:20;14.06;84.08
66594;DHT22;53450;42.584;23.366;2022-09-09T02:56:51;14.05;84.11
66594;DHT22;53450;42.584;23.366;2022-09-09T02:59:24;14.08;84.06
66594;DHT22;53450;42.584;23.366;2022-09-09T03:01:51;14.13;83.68
66594;DHT22;53450;42.584;23.366;2022-09-09T03:04:18;14.19;83.67
66594;DHT22;53450;42.584;23.366;2022-09-09T03:06:44;14.15;83.54
66594;DHT22;53450;42.584;23.366;2022-09-09T03:09:17;14.12;83.92
66594;DHT22;53450;42.584;23.366;2022-09-09T03:11:43;14.06;84.02
66594;DHT22;53450;42.584;23.366;2022-09-09T03:14:08;14.08;84.21
66594;DHT22;53450;42.584;23.366;2022-09-09T03:17:01;13.98;84.30
66594;DHT22;53450;42.584;23.366;2022-09-09T03:19:52;13.89;84.47
66594;DHT22;53450;42.584;23.366;2022-09-09T03:22:20;13.98;84.21
66594;DHT22;53450;42.584;23.366;2022-09-09T03:24:47;13.92;84.25
66594;DHT22;53450;42.584;23.366;2022-09-09T03:27:13;13.99;83.98
66594;DHT22;53450;42.584;23.366;2022-09-09T03:29:43;13.99;84.17
66594;DHT22;53450;42.584;23.366;2022-09-09T03:32:13;13.89;84.48
66594;DHT22;53450;42.584;23.366;2022-09-09T03:34:43;13.96;84.19
66594;DHT22;53450;42.584;23.366;2022-09-09T03:37:12;13.90;84.31
66594;DHT22;53450;42.584;23.366;2022-09-09T03:39:38;13.83;84.45
66594;DHT22;53450;42.584;23.366;2022-09-09T03:42:04;13.85;84.60
66594;DHT22;53450;42.584;23.366;2022-09-09T03:44:55;13.95;83.96
66594;DHT22;53450;42.584;23.366;2022-09-09T03:47:24;13.95;84.03
66594;DHT22;53450;42.584;23.366;2022-09-09T03:49:55;13.94;84.04
66594;DHT22;53450;42.584;23.366;2022-09-09T03:52:20;13.92;84.17
66594;DHT22;53450;42.584;23.366;2022-09-09T03:54:52;13.90;84.40
66594;DHT22;53450;42.584;23.366;2022-09-09T03:57:19;13.81;84.81
66594;DHT22;53450;42.584;23.366;2022-09-09T03:59:45;13.78;84.83
66594;DHT22;53450;42.584;23.366;2022-09-09T04:02:10;13.74;84.84
66594;DHT22;53450;42.584;23.366;2022-09-09T04:04:36;13.79;84.67
66594;DHT22;53450;42.584;23.366;2022-09-09T04:07:02;13.83;84.32
66594;DHT22;53450;42.584;23.366;2022-09-09T04:09:28;13.88;84.53
66594;DHT22;53450;42.584;23.366;2022-09-09T04:11:53;13.88;84.59
66594;DHT22;53450;42.584;23.366;2022-09-09T04:14:20;13.89;84.66
66594;DHT22;53450;42.584;23.366;2022-09-09T04:17:11;14.01;84.51
66594;DHT22;53450;42.584;23.366;2022-09-09T04:20:03;14.06;84.10
66594;DHT22;53450;42.584;23.366;2022-09-09T04:22:28;14.18;84.02
66594;DHT22;53450;42.584;23.366;2022-09-09T04:24:54;14.13;83.93
66594;DHT22;53450;42.584;23.366;2022-09-09T04:27:20;14.20;84.07
66594;DHT22;53450;42.584;23.366;2022-09-09T04:29:46;14.32;83.92
66594;DHT22;53450;42.584;23.366;2022-09-09T04:32:12;14.37;83.97
66594;DHT22;53450;42.584;23.366;2022-09-09T04:34:38;14.46;83.71
66594;DHT22;53450;42.584;23.366;2022-09-09T04:37:04;14.51;83.47
66594;DHT22;53450;42.584;23.366;2022-09-09T04:39:30;14.56;83.27
66594;DHT22;53450;42.584;23.366;2022-09-09T04:41:58;14.64;83.42
66594;DHT22;53450;42.584;23.366;2022-09-09T04:44:24;14.76;83.17
66594;DHT22;53450;42.584;23.366;2022-09-09T04:46:50;14.81;82.96
66594;DHT22;53450;42.584;23.366;2022-09-09T04:49:16;14.80;83.16
66594;DHT22;53450;42.584;23.366;2022-09-09T04:51:42;14.80;83.19
66594;DHT22;53450;42.584;23.366;2022-09-09T04:54:08;14.81;83.18
66594;DHT22;53450;42.584;23.366;2022-09-09T04:56:37;14.83;83.40
66594;DHT22;53450;42.584;23.366;2022-09-09T04:59:03;14.94;83.36
66594;DHT22;53450;42.584;23.366;2022-09-09T05:01:41;15.05;83.37
66594;DHT22;53450;42.584;23.366;2022-09-09T05:04:07;15.18;83.34
66594;DHT22;53450;42.584;23.366;2022-09-09T05:06:34;15.25;82.97
66594;DHT22;53450;42.584;23.366;2022-09-09T05:09:01;15.34;82.89
66594;DHT22;53450;42.584;23.366;2022-09-09T05:11:30;15.53;82.42
66594;DHT22;53450;42.584;23.366;2022-09-09T05:14:16;15.66;81.79
66594;DHT22;53450;42.584;23.366;2022-09-09T05:16:44;15.84;81.61
66594;DHT22;53450;42.584;23.366;2022-09-09T05:19:10;15.90;81.71
66594;DHT22;53450;42.584;23.366;2022-09-09T05:21:46;16.07;81.20
66594;DHT22;53450;42.584;23.366;2022-09-09T05:24:13;16.18;80.41
66594;DHT22;53450;42.584;23.366;2022-09-09T05:26:40;16.26;80.69
66594;DHT22;53450;42.584;23.366;2022-09-09T05:29:06;16.31;79.19
66594;DHT22;53450;42.584;23.366;2022-09-09T05:31:33;16.49;79.51
66594;DHT22;53450;42.584;23.366;2022-09-09T05:34:03;16.72;78.96
66594;DHT22;53450;42.584;23.366;2022-09-09T05:36:28;16.87;79.11
66594;DHT22;53450;42.584;23.366;2022-09-09T05:38:55;16.90;79.42
66594;DHT22;53450;42.584;23.366;2022-09-09T05:41:22;16.80;78.96
66594;DHT22;53450;42.584;23.366;2022-09-09T05:43:49;16.75;76.24
66594;DHT22;53450;42.584;23.366;2022-09-09T05:46:18;16.53;77.32
66594;DHT22;53450;42.584;23.366;2022-09-09T05:48:47;16.59;76.60
66594;DHT22;53450;42.584;23.366;2022-09-09T05:51:17;16.86;75.75
66594;DHT22;53450;42.584;23.366;2022-09-09T05:53:44;17.09;75.69
66594;DHT22;53450;42.584;23.366;2022-09-09T05:56:16;17.28;75.53
66594;DHT22;53450;42.584;23.366;2022-09-09T05:58:47;17.34;75.52
66594;DHT22;53450;42.584;23.366;2022-09-09T06:03:42;17.48;73.30
66594;DHT22;53450;42.584;23.366;2022-09-09T06:06:35;17.69;71.57
66594;DHT22;53450;42.584;23.366;2022-09-09T06:09:27;17.78;72.12
66594;DHT22;53450;42.584;23.366;2022-09-09T06:12:18;17.86;72.35
66594;DHT22;53450;42.584;23.366;2022-09-09T06:14:45;18.00;71.85
66594;DHT22;53450;42.584;23.366;2022-09-09T06:17:11;18.12;70.05
66594;DHT22;53450;42.584;23.366;2022-09-09T06:19:37;18.23;70.17
66594;DHT22;53450;42.584;23.366;2022-09-09T06:22:02;18.33;69.49
66594;DHT22;53450;42.584;23.366;2022-09-09T06:24:31;18.22;68.37
66594;DHT22;53450;42.584;23.366;2022-09-09T06:26:59;18.26;68.58
66594;DHT22;53450;42.584;23.366;2022-09-09T06:29:29;18.41;68.24
66594;DHT22;53450;42.584;23.366;2022-09-09T06:31:54;18.60;68.40
66594;DHT22;53450;42.584;23.366;2022-09-09T06:34:23;18.63;66.55
66594;DHT22;53450;42.584;23.366;2022-09-09T06:36:52;18.77;66.40
66594;DHT22;53450;42.584;23.366;2022-09-09T06:39:17;18.74;66.55
66594;DHT22;53450;42.584;23.366;2022-09-09T06:41:44;18.81;65.51
66594;DHT22;53450;42.584;23.366;2022-09-09T06:44:29;18.78;66.67
66594;DHT22;53450;42.584;23.366;2022-09-09T06:46:57;18.85;66.82
66594;DHT22;53450;42.584;23.366;2022-09-09T06:49:23;18.95;66.48
66594;DHT22;53450;42.584;23.366;2022-09-09T06:51:49;18.88;66.40
66594;DHT22;53450;42.584;23.366;2022-09-09T06:54:15;19.12;66.32
66594;DHT22;53450;42.584;23.366;2022-09-09T06:56:43;19.22;65.71
66594;DHT22;53450;42.584;23.366;2022-09-09T06:59:17;19.40;64.98
66594;DHT22;53450;42.584;23.366;2022-09-09T07:01:43;19.39;64.86
66594;DHT22;53450;42.584;23.366;2022-09-09T07:04:12;19.25;65.53
66594;DHT22;53450;42.584;23.366;2022-09-09T07:06:43;19.47;65.82
66594;DHT22;53450;42.584;23.366;2022-09-09T07:09:13;19.56;67.07
66594;DHT22;53450;42.584;23.366;2022-09-09T07:11:47;19.76;65.51
66594;DHT22;53450;42.584;23.366;2022-09-09T07:14:14;19.76;65.44
66594;DHT22;53450;42.584;23.366;2022-09-09T07:16:44;19.73;64.95
66594;DHT22;53450;42.584;23.366;2022-09-09T07:19:11;19.80;65.82
66594;DHT22;53450;42.584;23.366;2022-09-09T07:21:37;19.94;65.44
66594;DHT22;53450;42.584;23.366;2022-09-09T07:24:03;19.95;64.61
66594;DHT22;53450;42.584;23.366;2022-09-09T07:26:33;20.05;65.72
66594;DHT22;53450;42.584;23.366;2022-09-09T07:29:00;20.25;64.30
66594;DHT22;53450;42.584;23.366;2022-09-09T07:31:28;20.22;65.04
66594;DHT22;53450;42.584;23.366;2022-09-09T07:33:56;20.36;64.39
66594;DHT22;53450;42.584;23.366;2022-09-09T07:36:24;20.26;64.47
66594;DHT22;53450;42.584;23.366;2022-09-09T07:38:57;20.35;64.13
66594;DHT22;53450;42.584;23.366;2022-09-09T07:44:04;20.63;64.10
66594;DHT22;53450;42.584;23.366;2022-09-09T07:46:30;20.66;63.28
66594;DHT22;53450;42.584;23.366;2022-09-09T07:48:56;20.65;63.95
66594;DHT22;53450;42.584;23.366;2022-09-09T07:51:29;20.73;62.44
66594;DHT22;53450;42.584;23.366;2022-09-09T07:53:58;20.96;63.62
66594;DHT22;53450;42.584;23.366;2022-09-09T07:56:26;21.13;62.04
66594;DHT22;53450;42.584;23.366;2022-09-09T07:58:54;21.31;63.00
66594;DHT22;53450;42.584;23.366;2022-09-09T08:01:26;21.44;60.97
66594;DHT22;53450;42.584;23.366;2022-09-09T08:04:00;21.35;60.99
66594;DHT22;53450;42.584;23.366;2022-09-09T08:06:29;21.44;59.94
66594;DHT22;53450;42.584;23.366;2022-09-09T08:08:55;21.48;60.25
66594;DHT22;53450;42.584;23.366;2022-09-09T08:11:24;21.51;60.63
66594;DHT22;53450;42.584;23.366;2022-09-09T08:13:51;21.52;60.61
66594;DHT22;53450;42.584;23.366;2022-09-09T08:16:20;21.57;60.51
66594;DHT22;53450;42.584;23.366;2022-09-09T08:18:50;21.59;59.95
66594;DHT22;53450;42.584;23.366;2022-09-09T08:21:26;21.72;58.77
66594;DHT22;53450;42.584;23.366;2022-09-09T08:23:58;21.74;58.56
66594;DHT22;53450;42.584;23.366;2022-09-09T08:26:26;21.95;59.24
66594;DHT22;53450;42.584;23.366;2022-09-09T08:28:55;22.08;57.94
66594;DHT22;53450;42.584;23.366;2022-09-09T08:31:27;22.14;57.61
66594;DHT22;53450;42.584;23.366;2022-09-09T08:33:55;22.30;58.12
66594;DHT22;53450;42.584;23.366;2022-09-09T08:36:23;22.30;56.69
66594;DHT22;53450;42.584;23.366;2022-09-09T08:38:50;22.28;56.27
66594;DHT22;53450;42.584;23.366;2022-09-09T08:43:46;22.36;56.49
66594;DHT22;53450;42.584;23.366;2022-09-09T08:46:24;22.50;55.98
66594;DHT22;53450;42.584;23.366;2022-09-09T08:48:57;22.28;55.79
66594;DHT22;53450;42.584;23.366;2022-09-09T08:51:30;22.36;55.95
66594;DHT22;53450;42.584;23.366;2022-09-09T08:53:58;22.24;54.89
66594;DHT22;53450;42.584;23.366;2022-09-09T08:56:27;22.30;55.80
66594;DHT22;53450;42.584;23.366;2022-09-09T08:59:00;22.33;56.17
66594;DHT22;53450;42.584;23.366;2022-09-09T09:01:56;22.46;56.33
66594;DHT22;53450;42.584;23.366;2022-09-09T09:04:40;22.56;56.74
66594;DHT22;53450;42.584;23.366;2022-09-09T09:07:34;22.56;56.76
66594;DHT22;53450;42.584;23.366;2022-09-09T09:10:28;22.58;55.18
66594;DHT22;53450;42.584;23.366;2022-09-09T09:12:56;22.53;54.55
66594;DHT22;53450;42.584;23.366;2022-09-09T09:15:25;22.61;54.05
66594;DHT22;53450;42.584;23.366;2022-09-09T09:17:53;22.84;54.62
66594;DHT22;53450;42.584;23.366;2022-09-09T09:20:40;22.88;54.11
66594;DHT22;53450;42.584;23.366;2022-09-09T09:23:18;22.92;54.37
66594;DHT22;53450;42.584;23.366;2022-09-09T09:25:46;22.78;54.24
66594;DHT22;53450;42.584;23.366;2022-09-09T09:28:28;22.84;54.35
66594;DHT22;53450;42.584;23.366;2022-09-09T09:31:06;22.84;54.49
66594;DHT22;53450;42.584;23.366;2022-09-09T09:33:49;22.95;55.05
66594;DHT22;53450;42.584;23.366;2022-09-09T09:36:17;22.98;54.21
66594;DHT22;53450;42.584;23.366;2022-09-09T09:38:59;23.19;54.06
66594;DHT22;53450;42.584;23.366;2022-09-09T09:41:36;23.35;53.66
66594;DHT22;53450;42.584;23.366;2022-09-09T09:44:05;23.28;53.90
66594;DHT22;53450;42.584;23.366;2022-09-09T09:46:32;23.26;54.28
66594;DHT22;53450;42.584;23.366;2022-09-09T09:49:09;23.45;53.91
66594;DHT22;53450;42.584;23.366;2022-09-09T09:51:36;23.52;53.97
66594;DHT22;53450;42.584;23.366;2022-09-09T09:56:44;23.84;52.82
66594;DHT22;53450;42.584;23.366;2022-09-09T09:59:23;23.53;53.52
66594;DHT22;53450;42.584;23.366;2022-09-09T10:01:49;23.83;53.39
66594;DHT22;53450;42.584;23.366;2022-09-09T10:04:20;23.65;53.23
66594;DHT22;53450;42.584;23.366;2022-09-09T10:06:50;23.93;53.75
66594;DHT22;53450;42.584;23.366;2022-09-09T10:09:29;24.11;52.73
66594;DHT22;53450;42.584;23.366;2022-09-09T10:15:23;24.35;52.47
66594;DHT22;53450;42.584;23.366;2022-09-09T10:18:45;24.20;53.04
66594;DHT22;53450;42.584;23.366;2022-09-09T10:26:54;23.55;54.12
66594;DHT22;53450;42.584;23.366;2022-09-09T10:32:38;23.63;53.87
66594;DHT22;53450;42.584;23.366;2022-09-09T10:35:47;23.55;54.51
66594;DHT22;53450;42.584;23.366;2022-09-09T10:38:30;23.32;54.73
66594;DHT22;53450;42.584;23.366;2022-09-09T10:41:22;23.09;54.73
66594;DHT22;53450;42.584;23.366;2022-09-09T10:50:00;23.11;55.39
66594;DHT22;53450;42.584;23.366;2022-09-09T10:52:30;22.97;55.30
66594;DHT22;53450;42.584;23.366;2022-09-09T10:55:15;22.84;55.83
66594;DHT22;53450;42.584;23.366;2022-09-09T10:58:32;22.77;55.03
66594;DHT22;53450;42.584;23.366;2022-09-09T11:01:02;22.56;55.67
66594;DHT22;53450;42.584;23.366;2022-09-09T11:03:35;22.70;55.82
66594;DHT22;53450;42.584;23.366;2022-09-09T11:06:05;22.67;56.04
66594;DHT22;53450;42.584;23.366;2022-09-09T11:08:34;22.67;55.79
66594;DHT22;53450;42.584;23.366;2022-09-09T11:11:11;22.57;56.18
66594;DHT22;53450;42.584;23.366;2022-09-09T11:13:54;22.57;56.01
66594;DHT22;53450;42.584;23.366;2022-09-09T11:16:48;22.58;54.79
66594;DHT22;53450;42.584;23.366;2022-09-09T11:23:03;22.67;54.22
66594;DHT22;53450;42.584;23.366;2022-09-09T11:25:25;22.71;55.63
66594;DHT22;53450;42.584;23.366;2022-09-09T11:41:48;22.51;55.82
66594;DHT22;53450;42.584;23.366;2022-09-09T11:44:28;22.90;55.52
66594;DHT22;53450;42.584;23.366;2022-09-09T11:46:55;23.01;55.76
66594;DHT22;53450;42.584;23.366;2022-09-09T11:49:40;23.15;54.36
66594;DHT22;53450;42.584;23.366;2022-09-09T11:52:21;23.39;53.71
66594;DHT22;53450;42.584;23.366;2022-09-09T11:54:49;23.36;54.42
66594;DHT22;53450;42.584;23.366;2022-09-09T11:57:32;23.25;55.59
66594;DHT22;53450;42.584;23.366;2022-09-09T11:59:59;23.07;55.74
66594;DHT22;53450;42.584;23.366;2022-09-09T12:02:27;23.36;55.07
66594;DHT22;53450;42.584;23.366;2022-09-09T12:07:50;23.78;53.12
66594;DHT22;53450;42.584;23.366;2022-09-09T12:10:23;23.88;53.63
66594;DHT22;53450;42.584;23.366;2022-09-09T12:12:50;23.94;52.68
66594;DHT22;53450;42.584;23.366;2022-09-09T12:15:22;23.98;53.61
66594;DHT22;53450;42.584;23.366;2022-09-09T12:17:50;24.03;52.37
66594;DHT22;53450;42.584;23.366;2022-09-09T12:22:51;23.69;54.96
66594;DHT22;53450;42.584;23.366;2022-09-09T12:28:21;23.70;56.15
66594;DHT22;53450;42.584;23.366;2022-09-09T12:31:10;23.74;55.57
66594;DHT22;53450;42.584;23.366;2022-09-09T12:33:43;23.69;55.19
66594;DHT22;53450;42.584;23.366;2022-09-09T12:36:22;23.62;55.05
66594;DHT22;53450;42.584;23.366;2022-09-09T12:38:49;23.52;55.45
66594;DHT22;53450;42.584;23.366;2022-09-09T12:41:20;23.38;55.81
66594;DHT22;53450;42.584;23.366;2022-09-09T12:43:46;23.43;55.50
66594;DHT22;53450;42.584;23.366;2022-09-09T12:46:22;23.50;55.86
66594;DHT22;53450;42.584;23.366;2022-09-09T12:51:51;23.62;55.54
66594;DHT22;53450;42.584;23.366;2022-09-09T12:54:18;23.70;54.69
66594;DHT22;53450;42.584;23.366;2022-09-09T12:56:48;23.73;55.68
66594;DHT22;53450;42.584;23.366;2022-09-09T12:59:26;23.83;55.28
66594;DHT22;53450;42.584;23.366;2022-09-09T13:01:56;23.88;55.27
66594;DHT22;53450;42.584;23.366;2022-09-09T13:04:22;23.90;54.52
66594;DHT22;53450;42.584;23.366;2022-09-09T13:06:47;24.18;54.92
66594;DHT22;53450;42.584;23.366;2022-09-09T13:09:39;24.44;53.49
66594;DHT22;53450;42.584;23.366;2022-09-09T13:12:30;24.72;52.89
66594;DHT22;53450;42.584;23.366;2022-09-09T13:14:56;24.72;53.77
66594;DHT22;53450;42.584;23.366;2022-09-09T13:17:26;24.86;53.71
66594;DHT22;53450;42.584;23.366;2022-09-09T13:19:54;24.87;53.54
66594;DHT22;53450;42.584;23.366;2022-09-09T13:22:29;24.93;52.89
66594;DHT22;53450;42.584;23.366;2022-09-09T13:27:38;24.42;53.30
66594;DHT22;53450;42.584;23.366;2022-09-09T13:30:39;24.34;54.28
66594;DHT22;53450;42.584;23.366;2022-09-09T13:35:50;24.32;54.48
66594;DHT22;53450;42.584;23.366;2022-09-09T13:38:16;24.28;54.36
66594;DHT22;53450;42.584;23.366;2022-09-09T13:41:00;24.20;55.24
66594;DHT22;53450;42.584;23.366;2022-09-09T13:43:34;24.11;54.17
66594;DHT22;53450;42.584;23.366;2022-09-09T13:46:03;23.92;55.31
66594;DHT22;53450;42.584;23.366;2022-09-09T13:48:29;23.74;55.17
66594;DHT22;53450;42.584;23.366;2022-09-09T13:51:03;23.60;55.77
66594;DHT22;53450;42.584;23.366;2022-09-09T13:53:32;23.66;55.65
66594;DHT22;53450;42.584;23.366;2022-09-09T13:55:58;23.71;54.98
66594;DHT22;53450;42.584;23.366;2022-09-09T13:58:24;23.87;55.17
66594;DHT22;53450;42.584;23.366;2022-09-09T14:00:53;24.13;54.65
66594;DHT22;53450;42.584;23.366;2022-09-09T14:03:20;24.22;56.26
66594;DHT22;53450;42.584;23.366;2022-09-09T14:05:46;24.28;54.37
66594;DHT22;53450;42.584;23.366;2022-09-09T14:08:20;24.20;54.90
66594;DHT22;53450;42.584;23.366;2022-09-09T14:10:46;24.21;53.71
66594;DHT22;53450;42.584;23.366;2022-09-09T14:13:12;24.29;54.23
66594;DHT22;53450;42.584;23.366;2022-09-09T14:15:38;24.25;53.76
66594;DHT22;53450;42.584;23.366;2022-09-09T14:18:04;24.07;54.75
66594;DHT22;53450;42.584;23.366;2022-09-09T14:20:29;24.11;54.39
66594;DHT22;53450;42.584;23.366;2022-09-09T14:22:55;24.08;54.36
66594;DHT22;53450;42.584;23.366;2022-09-09T14:25:22;24.22;53.79
66594;DHT22;53450;42.584;23.366;2022-09-09T14:27:48;24.44;53.03
66594;DHT22;53450;42.584;23.366;2022-09-09T14:30:14;24.47;53.38
66594;DHT22;53450;42.584;23.366;2022-09-09T14:32:39;24.42;53.19
66594;DHT22;53450;42.584;23.366;2022-09-09T14:35:05;24.66;53.52
66594;DHT22;53450;42.584;23.366;2022-09-09T14:37:31;24.76;53.30
66594;DHT22;53450;42.584;23.366;2022-09-09T14:39:57;24.79;53.23
66594;DHT22;53450;42.584;23.366;2022-09-09T14:42:22;24.79;52.25
66594;DHT22;53450;42.584;23.366;2022-09-09T14:44:48;24.75;52.23
66594;DHT22;53450;42.584;23.366;2022-09-09T14:47:14;24.89;52.65
66594;DHT22;53450;42.584;23.366;2022-09-09T14:49:39;24.93;52.81
66594;DHT22;53450;42.584;23.366;2022-09-09T14:52:05;24.87;52.42
66594;DHT22;53450;42.584;23.366;2022-09-09T14:54:32;24.86;53.02
66594;DHT22;53450;42.584;23.366;2022-09-09T14:56:58;24.83;53.10
66594;DHT22;53450;42.584;23.366;2022-09-09T14:59:49;24.79;53.44
66594;DHT22;53450;42.584;23.366;2022-09-09T15:02:15;24.75;53.62
66594;DHT22;53450;42.584;23.366;2022-09-09T15:04:41;24.58;54.06
66594;DHT22;53450;42.584;23.366;2022-09-09T15:07:11;24.49;54.40
66594;DHT22;53450;42.584;23.366;2022-09-09T15:09:37;24.59;55.37
66594;DHT22;53450;42.584;23.366;2022-09-09T15:12:02;24.56;55.21
66594;DHT22;53450;42.584;23.366;2022-09-09T15:14:29;24.49;55.06
66594;DHT22;53450;42.584;23.366;2022-09-09T15:16:56;24.34;55.09
66594;DHT22;53450;42.584;23.366;2022-09-09T15:19:21;24.28;55.59
66594;DHT22;53450;42.584;23.366;2022-09-09T15:21:47;24.26;56.05
66594;DHT22;53450;42.584;23.366;2022-09-09T15:24:13;24.24;55.45
66594;DHT22;53450;42.584;23.366;2022-09-09T15:26:38;24.20;56.73
66594;DHT22;53450;42.584;23.366;2022-09-09T15:29:05;24.07;56.51
66594;DHT22;53450;42.584;23.366;2022-09-09T15:31:32;24.05;56.70
66594;DHT22;53450;42.584;23.366;2022-09-09T15:34:03;24.07;56.43
66594;DHT22;53450;42.584;23.366;2022-09-09T15:38:55;23.78;57.14
66594;DHT22;53450;42.584;23.366;2022-09-09T15:41:22;23.70;57.94
66594;DHT22;53450;42.584;23.366;2022-09-09T15:43:50;23.92;56.81
66594;DHT22;53450;42.584;23.366;2022-09-09T15:48:41;24.01;55.58
66594;DHT22;53450;42.584;23.366;2022-09-09T15:51:08;23.94;55.15
66594;DHT22;53450;42.584;23.366;2022-09-09T15:53:35;23.98;55.80
66594;DHT22;53450;42.584;23.366;2022-09-09T15:56:00;23.93;56.01
66594;DHT22;53450;42.584;23.366;2022-09-09T15:58:51;23.73;56.81
66594;DHT22;53450;42.584;23.366;2022-09-09T16:01:17;23.53;58.34
66594;DHT22;53450;42.584;23.366;2022-09-09T16:03:44;23.33;58.87
66594;DHT22;53450;42.584;23.366;2022-09-09T16:06:13;23.29;60.62
66594;DHT22;53450;42.584;23.366;2022-09-09T16:08:43;23.04;61.44
66594;DHT22;53450;42.584;23.366;2022-09-09T16:11:14;22.84;62.09
66594;DHT22;53450;42.584;23.366;2022-09-09T16:13:43;22.64;63.12
66594;DHT22;53450;42.584;23.366;2022-09-09T16:16:11;22.54;62.53
66594;DHT22;53450;42.584;23.366;2022-09-09T16:18:40;22.54;62.19
66594;DHT22;53450;42.584;23.366;2022-09-09T16:21:06;22.50;62.76
66594;DHT22;53450;42.584;23.366;2022-09-09T16:23:34;22.35;63.76
66594;DHT22;53450;42.584;23.366;2022-09-09T16:26:00;22.28;63.93
66594;DHT22;53450;42.584;23.366;2022-09-09T16:28:27;22.19;63.91
66594;DHT22;53450;42.584;23.366;2022-09-09T16:30:54;22.03;64.28
66594;DHT22;53450;42.584;23.366;2022-09-09T16:33:19;21.88;65.25
66594;DHT22;53450;42.584;23.366;2022-09-09T16:35:45;21.82;64.82
66594;DHT22;53450;42.584;23.366;2022-09-09T16:38:11;21.75;65.49
66594;DHT22;53450;42.584;23.366;2022-09-09T16:40:37;21.72;65.46
66594;DHT22;53450;42.584;23.366;2022-09-09T16:43:04;21.68;66.04
66594;DHT22;53450;42.584;23.366;2022-09-09T16:45:31;21.65;66.10
66594;DHT22;53450;42.584;23.366;2022-09-09T16:47:58;21.55;65.85
66594;DHT22;53450;42.584;23.366;2022-09-09T16:50:24;21.52;65.48
66594;DHT22;53450;42.584;23.366;2022-09-09T16:52:51;21.52;66.01
66594;DHT22;53450;42.584;23.366;2022-09-09T16:55:42;21.51;65.88
66594;DHT22;53450;42.584;23.366;2022-09-09T16:58:10;21.47;66.02
66594;DHT22;53450;42.584;23.366;2022-09-09T17:00:36;21.41;65.89
66594;DHT22;53450;42.584;23.366;2022-09-09T17:03:01;21.34;65.66
66594;DHT22;53450;42.584;23.366;2022-09-09T17:05:28;21.38;66.07
66594;DHT22;53450;42.584;23.366;2022-09-09T17:07:54;21.48;66.63
66594;DHT22;53450;42.584;23.366;2022-09-09T17:10:23;21.31;66.22
66594;DHT22;53450;42.584;23.366;2022-09-09T17:12:49;21.26;66.86
66594;DHT22;53450;42.584;23.366;2022-09-09T17:15:15;21.17;67.56
66594;DHT22;53450;42.584;23.366;2022-09-09T17:17:40;21.11;68.21
66594;DHT22;53450;42.584;23.366;2022-09-09T17:20:11;20.83;68.68
66594;DHT22;53450;42.584;23.366;2022-09-09T17:22:37;20.68;68.95
66594;DHT22;53450;42.584;23.366;2022-09-09T17:25:03;20.66;69.05
66594;DHT22;53450;42.584;23.366;2022-09-09T17:27:29;20.62;69.43
66594;DHT22;53450;42.584;23.366;2022-09-09T17:29:57;20.55;69.43
66594;DHT22;53450;42.584;23.366;2022-09-09T17:32:23;20.57;68.73
66594;DHT22;53450;42.584;23.366;2022-09-09T17:34:49;20.56;68.88